Time;durP1;ratioP1;P1;durP2;ratioP2;P2;SDS_P1;SDS_P2;PMS_P1;PMS_P2;Temp;Humidity;BMP_temperature;BMP_pressure;BME280_temperature;BME280_humidity;BME280_pressure;Samples;Min_cycle;Max_cycle;Signal;HPM_P1;HPM_P2
2022/12/23 00:00:06;;;;;;;33.47;13.45;;;7.30;99.90;;;;;;4185015;28;20486;-87
2022/12/23 00:02:14;;;;;;;41.30;14.98;;;7.30;99.90;;;;;;4185154;28;20049;-87
2022/12/23 00:04:15;;;;;;;34.27;13.10;;;7.20;99.90;;;;;;4201529;28;20135;-87
2022/12/23 00:06:18;;;;;;;32.35;13.77;;;7.20;99.90;;;;;;4185005;28;20306;-87
2022/12/23 00:08:20;;;;;;;37.35;13.40;;;7.20;99.90;;;;;;4201666;28;20061;-87
2022/12/23 00:10:23;;;;;;;34.17;12.68;;;7.50;99.90;;;;;;4185431;28;20049;-87
2022/12/23 00:17:02;;;;;;;34.20;12.18;;;7.20;99.90;;;;;;4201982;28;20045;-88
2022/12/23 00:19:04;;;;;;;37.85;13.93;;;7.20;99.90;;;;;;4202922;28;20060;-87
2022/12/23 00:21:09;;;;;;;35.03;12.75;;;7.20;99.90;;;;;;4201843;28;20044;-87
2022/12/23 00:23:11;;;;;;;31.33;12.90;;;7.20;99.90;;;;;;4201664;28;20094;-87
2022/12/23 00:25:18;;;;;;;32.53;14.00;;;7.20;99.90;;;;;;4185992;28;20044;-87
2022/12/23 00:27:19;;;;;;;36.47;13.13;;;7.20;99.90;;;;;;4185429;28;20044;-87
2022/12/23 00:29:21;;;;;;;32.92;14.52;;;7.20;99.90;;;;;;4201894;28;20054;-87
2022/12/23 00:31:23;;;;;;;38.13;13.90;;;7.20;99.90;;;;;;4200417;28;20129;-87
2022/12/23 00:33:27;;;;;;;31.58;12.85;;;7.20;99.90;;;;;;4184288;28;20045;-87
2022/12/23 00:35:31;;;;;;;31.10;13.48;;;7.20;99.90;;;;;;4200334;28;20087;-87
2022/12/23 00:37:31;;;;;;;35.25;13.70;;;7.20;99.90;;;;;;4200708;28;20044;-87
2022/12/23 00:44:12;;;;;;;36.00;12.52;;;7.20;99.90;;;;;;4201752;28;20057;-87
2022/12/23 00:46:14;;;;;;;33.17;13.77;;;7.20;99.90;;;;;;4201087;28;20534;-86
2022/12/23 00:50:36;;;;;;;37.13;14.18;;;7.10;99.90;;;;;;4200015;28;20065;-87
2022/12/23 00:52:37;;;;;;;32.80;12.40;;;7.10;99.90;;;;;;4200462;28;20051;-87
2022/12/23 00:54:38;;;;;;;33.42;12.25;;;7.50;99.90;;;;;;4201143;28;20045;-87
2022/12/23 00:56:39;;;;;;;38.78;13.75;;;7.20;99.90;;;;;;4183944;28;20044;-87
2022/12/23 00:58:40;;;;;;;36.20;14.02;;;7.10;99.90;;;;;;4183680;28;20451;-87
2022/12/23 01:05:36;;;;;;;33.25;11.80;;;7.10;99.90;;;;;;4199991;28;20056;-87
2022/12/23 01:07:37;;;;;;;34.47;13.70;;;7.20;99.90;;;;;;4199492;28;20079;-87
2022/12/23 01:09:38;;;;;;;33.22;13.40;;;7.10;99.90;;;;;;4199608;28;20056;-87
2022/12/23 01:11:39;;;;;;;41.80;13.60;;;7.10;99.90;;;;;;4201766;28;20184;-87
2022/12/23 01:13:41;;;;;;;38.58;13.93;;;7.10;99.90;;;;;;4199230;28;20040;-87
2022/12/23 01:15:42;;;;;;;35.67;14.13;;;7.20;99.90;;;;;;4199495;28;20045;-87
2022/12/23 01:17:44;;;;;;;36.08;13.80;;;7.10;99.90;;;;;;4198522;28;20642;-87
2022/12/23 01:19:45;;;;;;;38.33;13.55;;;7.10;99.90;;;;;;4183948;28;20048;-87
2022/12/23 01:21:47;;;;;;;33.78;12.68;;;7.10;99.90;;;;;;4182416;28;20049;-87
2022/12/23 01:23:49;;;;;;;33.78;13.25;;;7.10;99.90;;;;;;4183330;28;20142;-87
2022/12/23 01:26:01;;;;;;;30.63;12.40;;;7.00;99.90;;;;;;4198273;28;20033;-87
2022/12/23 01:28:04;;;;;;;33.30;13.25;;;7.10;99.90;;;;;;4199498;28;20076;-87
2022/12/23 01:30:06;;;;;;;34.08;14.63;;;7.10;99.90;;;;;;4198274;28;20543;-87
2022/12/23 01:32:08;;;;;;;36.97;14.55;;;7.10;99.90;;;;;;4198129;28;20048;-87
2022/12/23 01:34:09;;;;;;;39.58;15.35;;;7.10;99.90;;;;;;4198343;28;20048;-87
2022/12/23 01:36:10;;;;;;;47.22;15.82;;;7.50;99.90;;;;;;4199180;28;20076;-87
2022/12/23 01:38:11;;;;;;;40.30;15.75;;;7.10;99.90;;;;;;4198216;28;20055;-88
2022/12/23 01:40:11;;;;;;;41.63;15.38;;;7.20;99.90;;;;;;4198908;28;20055;-87
2022/12/23 01:44:56;;;;;;;48.40;16.90;;;7.20;99.90;;;;;;4199277;28;20060;-87
2022/12/23 01:46:57;;;;;;;39.65;14.25;;;7.10;99.90;;;;;;4185983;28;20045;-87
2022/12/23 01:48:57;;;;;;;37.78;13.95;;;7.30;99.90;;;;;;4185044;28;20076;-88
2022/12/23 01:51:10;;;;;;;42.88;14.55;;;7.10;99.90;;;;;;4206147;28;20049;-87
2022/12/23 01:53:18;;;;;;;39.78;14.98;;;7.10;99.90;;;;;;4206954;28;20087;-87
2022/12/23 01:55:23;;;;;;;40.97;15.60;;;7.20;99.90;;;;;;4202297;28;20051;-87
2022/12/23 01:57:32;;;;;;;40.88;15.00;;;7.10;99.90;;;;;;4198960;28;20044;-87
2022/12/23 02:04:18;;;;;;;46.08;15.00;;;7.10;99.90;;;;;;4199514;28;20060;-87
2022/12/23 02:11:26;;;;;;;39.25;15.15;;;7.20;99.90;;;;;;4198533;28;20103;-86
2022/12/23 02:16:15;;;;;;;39.53;15.15;;;7.10;99.90;;;;;;4197985;28;20489;-86
2022/12/23 02:16:16;;;;;;;39.90;15.27;;;7.00;99.90;;;;;;4197939;28;20060;-86
2022/12/23 02:18:43;;;;;;;44.53;15.65;;;7.10;99.90;;;;;;4198012;28;20049;-85
2022/12/23 02:21:12;;;;;;;40.15;15.57;;;7.10;99.90;;;;;;4182071;28;20053;-86
2022/12/23 02:23:28;;;;;;;40.08;15.07;;;7.10;99.90;;;;;;4190061;28;20052;-87
2022/12/23 02:25:48;;;;;;;39.20;14.90;;;7.10;99.90;;;;;;4182814;28;20049;-86
2022/12/23 02:28:29;;;;;;;37.60;14.45;;;7.10;99.90;;;;;;4198156;28;20132;-86
2022/12/23 02:30:56;;;;;;;46.30;15.93;;;7.10;99.90;;;;;;4198864;28;20052;-86
2022/12/23 02:33:31;;;;;;;45.53;16.17;;;7.10;99.90;;;;;;4195090;28;20048;-86
2022/12/23 02:36:03;;;;;;;37.28;14.88;;;7.10;99.90;;;;;;4198551;28;20057;-86
2022/12/23 02:38:03;;;;;;;42.80;14.13;;;7.00;99.90;;;;;;4198389;28;20131;-86
2022/12/23 02:40:26;;;;;;;39.92;15.30;;;7.10;99.90;;;;;;4198638;28;20179;-86
2022/12/23 02:42:44;;;;;;;42.70;15.50;;;7.10;99.90;;;;;;4196218;28;20049;-87
2022/12/23 02:44:49;;;;;;;42.38;16.15;;;7.10;99.90;;;;;;4200793;28;20512;-87
2022/12/23 02:47:04;;;;;;;43.55;15.65;;;7.00;99.90;;;;;;4200087;28;20519;-87
2022/12/23 02:49:23;;;;;;;39.13;15.18;;;7.00;99.90;;;;;;4199859;28;20126;-87
2022/12/23 02:51:31;;;;;;;43.38;15.63;;;7.00;99.90;;;;;;4183952;28;20118;-87
2022/12/23 02:53:45;;;;;;;45.33;14.63;;;7.00;99.90;;;;;;4200325;28;20053;-86
2022/12/23 02:55:49;;;;;;;39.65;14.38;;;7.00;99.90;;;;;;4200895;28;20053;-86
2022/12/23 02:57:53;;;;;;;41.67;15.10;;;7.00;99.90;;;;;;4200206;28;20179;-87
2022/12/23 02:59:56;;;;;;;39.40;14.75;;;7.00;99.90;;;;;;4185917;28;20087;-86
2022/12/23 03:02:03;;;;;;;42.67;16.17;;;7.00;99.90;;;;;;4185840;28;20045;-86
2022/12/23 03:04:05;;;;;;;41.80;14.63;;;6.90;99.90;;;;;;4202439;28;20403;-86
2022/12/23 03:06:22;;;;;;;44.42;15.32;;;6.90;99.90;;;;;;4203485;28;20036;-87
2022/12/23 03:08:28;;;;;;;41.97;15.18;;;6.90;99.90;;;;;;4185686;28;20102;-87
2022/12/23 03:11:04;;;;;;;39.13;13.90;;;6.90;99.90;;;;;;4201997;28;20492;-86
2022/12/23 03:13:29;;;;;;;51.08;14.50;;;6.90;99.90;;;;;;4203026;28;20045;-87
2022/12/23 03:16:12;;;;;;;45.00;15.90;;;6.90;99.90;;;;;;4184699;28;20055;-87
2022/12/23 03:18:22;;;;;;;39.05;14.40;;;6.90;99.90;;;;;;4184739;28;20052;-87
2022/12/23 03:20:31;;;;;;;41.75;13.90;;;6.90;99.90;;;;;;4202238;28;20071;-86
2022/12/23 03:23:10;;;;;;;49.63;14.77;;;6.90;99.90;;;;;;4200957;28;20053;-86
2022/12/23 03:25:26;;;;;;;40.80;13.93;;;6.90;99.90;;;;;;4195876;28;20508;-87
2022/12/23 03:27:30;;;;;;;38.58;14.10;;;7.80;99.90;;;;;;4200258;28;20068;-86
2022/12/23 03:29:40;;;;;;;40.42;13.25;;;7.60;99.90;;;;;;4200518;28;20048;-87
2022/12/23 03:31:44;;;;;;;38.20;13.05;;;6.90;99.90;;;;;;4201254;28;20044;-87
2022/12/23 03:33:52;;;;;;;38.13;12.45;;;7.80;99.90;;;;;;4200630;28;20512;-87
2022/12/23 03:36:01;;;;;;;43.08;13.50;;;7.40;99.90;;;;;;4200488;28;20044;-87
2022/12/23 03:38:06;;;;;;;38.67;14.00;;;6.90;99.90;;;;;;4184031;28;20071;-86
2022/12/23 03:40:13;;;;;;;36.97;12.43;;;7.80;99.90;;;;;;4200447;28;20417;-86
2022/12/23 03:42:32;;;;;;;42.08;13.77;;;6.90;99.90;;;;;;4199988;28;20045;-86
2022/12/23 03:44:37;;;;;;;;;;;6.90;99.90;;;;;;4201141;28;20049;-86
2022/12/23 03:46:44;;;;;;;36.97;12.82;;;6.90;99.90;;;;;;4200291;28;19995;-86
2022/12/23 03:48:56;;;;;;;40.25;14.07;;;7.20;99.90;;;;;;4201167;28;20056;-86
2022/12/23 03:51:03;;;;;;;41.40;13.20;;;6.80;99.90;;;;;;4199837;28;20460;-87
2022/12/23 03:53:10;;;;;;;42.78;13.68;;;6.90;99.90;;;;;;4200574;28;20054;-87
2022/12/23 03:55:36;;;;;;;45.63;13.27;;;6.90;99.90;;;;;;4199915;28;20478;-87
2022/12/23 03:57:42;;;;;;;42.83;13.07;;;7.00;99.90;;;;;;4200489;28;20044;-87
2022/12/23 03:59:49;;;;;;;40.47;13.35;;;7.10;99.90;;;;;;4184172;28;20076;-87
2022/12/23 04:02:00;;;;;;;43.28;14.38;;;6.90;99.90;;;;;;4201676;28;20048;-87
2022/12/23 04:04:14;;;;;;;41.67;13.18;;;6.80;99.90;;;;;;4200920;28;20539;-87
2022/12/23 04:06:16;;;;;;;38.35;11.75;;;6.80;99.90;;;;;;4200038;28;20440;-87
2022/12/23 04:08:24;;;;;;;42.65;13.20;;;6.80;99.90;;;;;;4200243;28;20048;-87
2022/12/23 04:10:27;;;;;;;39.53;12.30;;;6.90;99.90;;;;;;4200717;28;20056;-87
2022/12/23 04:12:30;;;;;;;46.63;15.07;;;6.80;99.90;;;;;;4201240;28;20051;-87
2022/12/23 04:14:34;;;;;;;42.15;13.65;;;7.60;99.90;;;;;;4200578;28;20059;-87
2022/12/23 04:16:37;;;;;;;40.08;12.10;;;7.20;99.90;;;;;;4185022;28;20052;-87
2022/12/23 04:18:38;;;;;;;37.58;11.85;;;6.80;99.90;;;;;;4183938;28;20083;-87
2022/12/23 04:20:40;;;;;;;43.42;13.38;;;6.80;99.90;;;;;;4184128;28;20045;-87
2022/12/23 04:22:42;;;;;;;40.80;14.52;;;6.80;99.90;;;;;;4184223;28;20049;-87
2022/12/23 04:24:44;;;;;;;39.75;12.85;;;6.80;99.90;;;;;;4183713;28;20047;-87
2022/12/23 04:26:44;;;;;;;40.00;12.70;;;6.80;99.90;;;;;;4200825;28;20045;-87
2022/12/23 04:28:45;;;;;;;41.90;12.93;;;6.80;99.90;;;;;;4200336;28;20108;-87
2022/12/23 04:30:46;;;;;;;37.00;12.00;;;7.00;99.90;;;;;;4184440;28;20060;-87
2022/12/23 04:32:47;;;;;;;41.90;13.43;;;7.10;99.90;;;;;;4200829;28;20062;-87
2022/12/23 04:34:48;;;;;;;35.28;11.88;;;7.10;99.90;;;;;;4200868;28;20492;-87
2022/12/23 04:36:49;;;;;;;36.28;12.20;;;6.80;99.90;;;;;;4202169;28;20040;-87
2022/12/23 04:38:50;;;;;;;36.30;12.90;;;6.80;99.90;;;;;;4201257;28;20106;-87
2022/12/23 04:40:51;;;;;;;37.85;11.93;;;7.10;99.90;;;;;;4203364;28;20044;-87
2022/12/23 04:42:51;;;;;;;35.90;12.32;;;6.80;99.90;;;;;;4190618;28;20048;-87
2022/12/23 04:44:53;;;;;;;34.58;12.63;;;7.10;99.90;;;;;;4209844;28;20050;-87
2022/12/23 04:46:54;;;;;;;38.97;12.75;;;7.40;99.90;;;;;;4193726;28;20045;-87
2022/12/23 04:49:05;;;;;;;37.13;12.57;;;7.40;99.90;;;;;;4213954;28;20508;-87
2022/12/23 04:51:14;;;;;;;38.03;11.82;;;6.80;99.90;;;;;;4214787;28;20595;-87
2022/12/23 04:53:15;;;;;;;38.90;11.98;;;6.80;99.90;;;;;;4213475;28;20052;-87
2022/12/23 04:55:24;;;;;;;37.58;12.70;;;7.30;99.90;;;;;;4183949;28;20056;-87
2022/12/23 04:57:24;;;;;;;40.28;12.10;;;6.90;99.90;;;;;;4184117;28;20123;-87
2022/12/23 04:59:34;;;;;;;37.17;11.82;;;6.80;99.90;;;;;;4202059;28;20378;-86
2022/12/23 05:01:37;;;;;;;39.78;12.45;;;6.80;99.90;;;;;;4201386;28;20127;-86
2022/12/23 05:03:38;;;;;;;34.88;12.05;;;6.70;99.90;;;;;;4200731;28;20056;-86
2022/12/23 05:05:45;;;;;;;34.80;10.68;;;7.10;99.90;;;;;;4199835;28;20040;-86
2022/12/23 05:07:48;;;;;;;31.48;12.45;;;6.70;99.90;;;;;;4200946;28;20124;-86
2022/12/23 05:10:00;;;;;;;33.05;11.60;;;7.30;99.90;;;;;;4200212;28;20907;-86
2022/12/23 05:12:01;;;;;;;42.95;13.65;;;6.70;99.90;;;;;;4200832;28;20089;-87
2022/12/23 05:14:01;;;;;;;34.92;11.18;;;6.60;99.90;;;;;;4183107;28;20044;-86
2022/12/23 05:16:04;;;;;;;33.97;10.52;;;6.70;99.90;;;;;;4183039;28;20049;-86
2022/12/23 05:18:05;;;;;;;32.38;10.57;;;6.70;99.90;;;;;;4182483;28;20139;-86
2022/12/23 05:20:09;;;;;;;36.22;11.82;;;6.80;99.90;;;;;;4182952;28;20048;-86
2022/12/23 05:22:16;;;;;;;31.60;10.55;;;6.70;99.90;;;;;;4199158;28;20143;-86
2022/12/23 05:24:18;;;;;;;33.30;11.55;;;6.70;99.90;;;;;;4182215;28;20056;-86
2022/12/23 05:26:18;;;;;;;33.60;11.07;;;7.30;99.90;;;;;;4200511;28;20060;-86
2022/12/23 05:28:21;;;;;;;34.17;11.13;;;6.70;99.90;;;;;;4198971;28;20130;-86
2022/12/23 05:30:22;;;;;;;30.55;10.75;;;6.70;99.90;;;;;;4199126;28;20052;-86
2022/12/23 05:32:22;;;;;;;32.20;10.98;;;7.20;99.90;;;;;;4199009;28;20052;-86
2022/12/23 05:34:24;;;;;;;32.40;10.75;;;6.70;99.90;;;;;;4199624;28;20076;-86
2022/12/23 05:36:26;;;;;;;33.53;11.25;;;6.60;99.90;;;;;;4200442;28;20045;-86
2022/12/23 05:38:28;;;;;;;28.55;9.85;;;7.40;99.90;;;;;;4198778;28;20090;-87
2022/12/23 05:40:32;;;;;;;32.95;10.40;;;6.70;99.90;;;;;;4200480;28;20063;-86
2022/12/23 05:42:33;;;;;;;28.92;9.35;;;6.70;99.90;;;;;;4182179;28;20056;-86
2022/12/23 05:44:35;;;;;;;35.03;10.43;;;6.70;99.90;;;;;;4199733;28;20440;-86
2022/12/23 05:46:36;;;;;;;28.15;9.52;;;6.70;99.90;;;;;;4198433;28;20040;-86
2022/12/23 05:48:38;;;;;;;31.08;10.93;;;7.20;99.90;;;;;;4198756;28;20056;-86
2022/12/23 05:50:40;;;;;;;30.63;10.40;;;7.00;99.90;;;;;;4198925;28;20053;-86
2022/12/23 05:52:40;;;;;;;30.38;9.23;;;6.70;99.90;;;;;;4198561;28;20044;-86
2022/12/23 05:54:41;;;;;;;32.33;9.43;;;6.60;99.90;;;;;;4199322;28;20084;-86
2022/12/23 05:56:44;;;;;;;29.70;9.60;;;6.90;99.90;;;;;;4198622;28;20108;-86
2022/12/23 05:58:45;;;;;;;28.40;10.40;;;7.00;99.90;;;;;;4199910;28;20088;-86
2022/12/23 06:00:45;;;;;;;27.63;9.75;;;7.00;99.90;;;;;;4182672;28;20049;-86
2022/12/23 06:02:46;;;;;;;29.10;9.75;;;7.20;99.90;;;;;;4199779;28;20155;-86
2022/12/23 06:04:48;;;;;;;29.33;9.05;;;7.30;99.90;;;;;;4200649;28;20083;-87
2022/12/23 06:06:50;;;;;;;28.90;9.82;;;6.50;99.90;;;;;;4199327;28;20054;-86
2022/12/23 06:08:50;;;;;;;26.42;9.55;;;6.60;99.90;;;;;;4182906;28;20048;-86
2022/12/23 06:10:52;;;;;;;29.13;10.55;;;6.80;99.90;;;;;;4198892;28;20564;-86
2022/12/23 06:12:53;;;;;;;27.92;9.65;;;6.60;99.90;;;;;;4199446;28;20076;-86
2022/12/23 06:14:54;;;;;;;26.00;10.00;;;7.10;99.90;;;;;;4198492;28;20103;-86
2022/12/23 06:16:57;;;;;;;32.22;10.52;;;7.20;99.90;;;;;;4181507;28;20052;-86
2022/12/23 06:18:57;;;;;;;30.13;9.98;;;7.10;99.90;;;;;;4197712;28;20086;-86
2022/12/23 06:20:58;;;;;;;27.52;9.43;;;6.50;99.90;;;;;;4197896;28;20048;-86
2022/12/23 06:23:01;;;;;;;27.63;10.52;;;6.60;99.90;;;;;;4181787;28;20048;-86
2022/12/23 06:25:03;;;;;;;28.80;10.25;;;7.20;99.90;;;;;;4197349;28;20044;-86
2022/12/23 06:27:04;;;;;;;30.65;10.07;;;6.40;99.90;;;;;;4199283;28;20044;-86
2022/12/23 06:29:05;;;;;;;35.72;10.57;;;6.60;99.90;;;;;;4181451;28;20052;-86
2022/12/23 06:31:07;;;;;;;29.13;9.88;;;6.90;99.90;;;;;;4197924;28;20412;-86
2022/12/23 06:33:08;;;;;;;25.35;9.27;;;6.80;99.90;;;;;;4198957;28;20044;-86
2022/12/23 06:35:09;;;;;;;30.95;10.98;;;6.40;99.90;;;;;;4186525;28;20052;-86
2022/12/23 06:37:09;;;;;;;32.85;10.43;;;6.80;99.90;;;;;;4204315;28;20063;-86
2022/12/23 06:39:10;;;;;;;34.17;10.75;;;7.00;99.90;;;;;;4203539;28;20040;-86
2022/12/23 06:41:11;;;;;;;36.58;10.93;;;6.70;99.90;;;;;;4187254;28;20045;-86
2022/12/23 06:43:12;;;;;;;33.55;10.95;;;6.60;99.90;;;;;;4203247;28;20041;-86
2022/12/23 06:45:13;;;;;;;34.42;12.25;;;6.80;99.90;;;;;;4202808;28;20103;-86
2022/12/23 06:47:14;;;;;;;37.58;11.32;;;6.40;99.90;;;;;;4203765;28;20068;-86
2022/12/23 06:49:14;;;;;;;36.55;11.45;;;7.10;99.90;;;;;;4185598;28;20052;-85
2022/12/23 06:51:15;;;;;;;34.70;11.07;;;6.40;99.90;;;;;;4203383;28;20051;-85
2022/12/23 06:53:16;;;;;;;35.30;11.40;;;6.40;99.90;;;;;;4201891;28;20546;-85
2022/12/23 06:55:17;;;;;;;36.25;11.18;;;6.60;99.90;;;;;;4202510;28;20146;-86
2022/12/23 06:57:17;;;;;;;41.92;10.95;;;6.50;99.90;;;;;;4204470;28;20044;-86
2022/12/23 06:59:19;;;;;;;39.85;11.98;;;6.40;99.90;;;;;;4206163;28;20147;-86
2022/12/23 07:01:20;;;;;;;31.02;10.90;;;6.40;99.90;;;;;;4206373;28;20133;-86
2022/12/23 07:03:21;;;;;;;33.15;10.73;;;6.40;99.90;;;;;;4203639;28;20504;-86
2022/12/23 07:05:23;;;;;;;35.22;10.18;;;6.40;99.90;;;;;;4205312;28;20043;-84
2022/12/23 07:07:24;;;;;;;41.25;11.27;;;6.40;99.90;;;;;;4318553;22;20473;-87
2022/12/23 07:09:25;;;;;;;29.73;10.30;;;6.40;99.90;;;;;;4204919;28;20448;-86
2022/12/23 07:11:26;;;;;;;43.83;13.23;;;6.40;99.90;;;;;;4204123;28;20055;-87
2022/12/23 07:13:29;;;;;;;35.92;11.90;;;6.40;99.90;;;;;;4204600;28;20044;-87
2022/12/23 07:15:31;;;;;;;35.13;10.75;;;6.40;99.90;;;;;;4203183;28;20044;-87
2022/12/23 07:17:32;;;;;;;39.08;11.18;;;6.40;99.90;;;;;;4219840;28;20044;-86
2022/12/23 07:19:33;;;;;;;33.90;10.90;;;6.40;99.90;;;;;;4203074;28;20045;-86
2022/12/23 07:21:37;;;;;;;34.08;10.90;;;6.50;99.90;;;;;;4202728;28;20053;-86
2022/12/23 07:23:38;;;;;;;37.17;11.57;;;6.50;99.90;;;;;;4225093;28;20094;-87
2022/12/23 07:25:39;;;;;;;36.97;11.02;;;6.50;99.90;;;;;;4219542;28;20059;-87
2022/12/23 07:27:40;;;;;;;36.03;11.90;;;6.80;99.90;;;;;;4219517;28;20027;-87
2022/12/23 07:29:40;;;;;;;39.08;11.50;;;7.10;99.90;;;;;;4217443;28;20039;-86
2022/12/23 07:31:42;;;;;;;37.60;11.20;;;6.70;99.90;;;;;;4205874;28;20043;-86
2022/12/23 07:33:44;;;;;;;38.08;11.57;;;6.60;99.90;;;;;;4202329;28;20048;-87
2022/12/23 07:35:45;;;;;;;34.90;11.07;;;7.20;99.90;;;;;;4219538;28;20052;-86
2022/12/23 07:37:54;;;;;;;31.17;10.35;;;6.50;99.90;;;;;;4202783;28;20047;-86
2022/12/23 07:39:55;;;;;;;;;;;6.50;99.90;;;;;;4219938;28;20058;-86
2022/12/23 07:41:55;;;;;;;31.17;10.40;;;6.50;99.90;;;;;;4219398;28;19955;-86
2022/12/23 07:43:57;;;;;;;39.85;10.90;;;6.60;99.90;;;;;;4218778;28;20496;-86
2022/12/23 07:45:58;;;;;;;30.35;10.05;;;7.10;99.90;;;;;;4216005;28;20052;-86
2022/12/23 07:48:01;;;;;;;33.08;10.27;;;6.80;99.90;;;;;;4215756;28;20044;-85
2022/12/23 07:50:03;;;;;;;34.40;10.55;;;7.40;99.90;;;;;;4212043;28;20094;-86
2022/12/23 07:52:03;;;;;;;32.45;10.52;;;6.50;99.90;;;;;;4219639;28;20044;-86
2022/12/23 07:54:04;;;;;;;32.22;10.98;;;6.60;99.90;;;;;;4220901;28;20496;-86
2022/12/23 07:56:06;;;;;;;30.60;10.57;;;6.60;99.90;;;;;;4216538;28;20044;-86
2022/12/23 07:58:08;;;;;;;28.98;8.98;;;6.50;99.90;;;;;;4215878;28;20131;-86
2022/12/23 08:00:11;;;;;;;33.78;11.43;;;7.50;99.90;;;;;;4215270;28;20040;-86
2022/12/23 08:02:13;;;;;;;34.63;10.10;;;7.10;99.90;;;;;;4199340;28;20059;-86
2022/12/23 08:04:15;;;;;;;29.00;10.73;;;6.60;99.90;;;;;;4198953;28;20040;-86
2022/12/23 08:06:17;;;;;;;29.23;9.57;;;7.30;99.90;;;;;;4199234;28;20117;-86
2022/12/23 08:08:18;;;;;;;32.17;9.30;;;7.00;99.90;;;;;;4199858;28;20102;-86
2022/12/23 08:10:21;;;;;;;27.77;9.52;;;6.90;99.90;;;;;;4198956;28;20060;-86
2022/12/23 08:12:24;;;;;;;28.30;9.70;;;7.30;99.90;;;;;;4198930;28;20048;-86
2022/12/23 08:14:24;;;;;;;25.23;8.45;;;6.50;99.90;;;;;;4199136;28;20045;-86
2022/12/23 08:16:26;;;;;;;28.48;9.25;;;6.60;99.90;;;;;;4198645;28;20124;-86
2022/12/23 08:18:31;;;;;;;22.42;8.32;;;7.50;99.90;;;;;;4201022;28;20053;-86
2022/12/23 08:20:32;;;;;;;26.95;9.15;;;6.60;99.90;;;;;;4214126;28;20516;-85
2022/12/23 08:22:32;;;;;;;26.17;7.50;;;7.00;99.90;;;;;;4202652;28;20056;-84
2022/12/23 08:24:34;;;;;;;23.60;8.30;;;7.30;99.90;;;;;;4202597;28;20425;-87
2022/12/23 08:26:35;;;;;;;25.45;7.47;;;7.20;99.90;;;;;;4199928;28;20076;-86
2022/12/23 08:28:38;;;;;;;25.08;7.30;;;7.40;99.90;;;;;;4182290;28;20476;-87
2022/12/23 08:30:38;;;;;;;18.85;6.53;;;6.60;99.90;;;;;;4199820;28;20400;-87
2022/12/23 08:32:39;;;;;;;21.73;7.82;;;7.50;99.90;;;;;;4200204;28;20039;-86
2022/12/23 08:34:40;;;;;;;23.55;7.25;;;7.30;99.90;;;;;;4201962;28;20123;-86
2022/12/23 08:36:40;;;;;;;28.85;7.82;;;7.50;99.90;;;;;;4210663;28;20036;-88
2022/12/23 08:38:43;;;;;;;21.13;7.18;;;7.10;99.90;;;;;;4204939;28;20044;-88
2022/12/23 08:40:44;;;;;;;21.42;6.60;;;6.70;99.90;;;;;;4205223;28;20086;-87
2022/12/23 08:42:44;;;;;;;21.58;6.90;;;7.40;99.90;;;;;;4211673;28;20086;-87
2022/12/23 08:44:45;;;;;;;18.67;6.25;;;6.90;99.90;;;;;;4211785;28;20152;-87
2022/12/23 08:46:46;;;;;;;17.17;6.72;;;6.90;99.90;;;;;;4207395;28;20047;-86
2022/12/23 08:48:47;;;;;;;18.27;7.30;;;6.70;99.90;;;;;;4212621;28;20044;-88
2022/12/23 08:50:48;;;;;;;21.45;6.90;;;7.50;99.90;;;;;;4205637;28;20432;-87
2022/12/23 08:52:49;;;;;;;24.65;7.30;;;7.80;99.90;;;;;;4203865;28;20040;-87
2022/12/23 08:54:51;;;;;;;21.80;7.03;;;6.80;99.90;;;;;;4222643;28;20468;-87
2022/12/23 08:56:51;;;;;;;15.40;6.28;;;6.70;99.90;;;;;;4215782;28;20044;-87
2022/12/23 08:58:54;;;;;;;25.17;8.07;;;6.80;99.90;;;;;;4213476;28;20495;-87
2022/12/23 09:00:55;;;;;;;25.80;7.43;;;6.80;99.90;;;;;;4216198;28;20491;-87
2022/12/23 09:02:58;;;;;;;23.15;7.50;;;7.70;99.90;;;;;;4206245;28;20473;-87
2022/12/23 09:04:59;;;;;;;20.20;7.40;;;6.90;99.90;;;;;;4210061;28;20127;-87
2022/12/23 09:07:00;;;;;;;20.15;8.57;;;7.40;99.90;;;;;;4209672;28;20041;-87
2022/12/23 09:09:04;;;;;;;19.85;7.07;;;6.90;99.90;;;;;;4224183;28;20096;-86
2022/12/23 09:11:08;;;;;;;19.45;6.95;;;6.90;99.90;;;;;;4211986;28;20095;-86
2022/12/23 09:13:11;;;;;;;26.50;7.80;;;8.00;99.90;;;;;;4194073;28;20044;-88
2022/12/23 09:15:12;;;;;;;21.92;7.32;;;7.70;99.90;;;;;;4211715;28;20075;-87
2022/12/23 09:17:16;;;;;;;22.55;7.20;;;7.80;99.90;;;;;;4211635;28;20428;-86
2022/12/23 09:19:18;;;;;;;23.25;7.47;;;7.60;99.90;;;;;;4188190;28;20044;-87
2022/12/23 09:21:21;;;;;;;18.85;7.10;;;7.00;99.90;;;;;;4198580;28;20107;-86
2022/12/23 09:23:22;;;;;;;22.23;7.43;;;7.20;99.90;;;;;;4213745;28;20564;-84
2022/12/23 09:25:22;;;;;;;20.67;7.60;;;8.00;99.90;;;;;;4210581;28;20118;-86
2022/12/23 09:27:24;;;;;;;20.95;7.75;;;7.70;99.90;;;;;;4212361;28;20036;-87
2022/12/23 09:29:25;;;;;;;21.38;7.90;;;7.80;99.90;;;;;;4212899;28;20052;-88
2022/12/23 09:31:27;;;;;;;24.05;9.00;;;7.50;99.90;;;;;;4205973;28;20708;-88
2022/12/23 09:33:27;;;;;;;22.48;7.65;;;7.40;99.90;;;;;;4199935;28;20098;-86
2022/12/23 09:35:28;;;;;;;22.42;8.15;;;7.40;99.90;;;;;;4218361;28;20048;-87
2022/12/23 09:37:29;;;;;;;20.85;8.48;;;7.70;99.90;;;;;;4199453;28;20090;-86
2022/12/23 09:39:30;;;;;;;19.77;7.53;;;7.50;99.90;;;;;;4203745;28;20044;-88
2022/12/23 09:41:52;;;;;;;19.95;8.38;;;7.50;99.90;;;;;;4214360;28;20124;-87
2022/12/23 09:44:49;;;;;;;21.08;8.75;;;7.40;99.90;;;;;;4216663;28;20420;-86
2022/12/23 09:46:55;;;;;;;19.48;8.32;;;7.40;99.90;;;;;;4163908;28;21003;-87
2022/12/23 09:49:03;;;;;;;23.83;8.00;;;7.40;99.90;;;;;;4164578;28;20061;-87
2022/12/23 09:51:05;;;;;;;18.87;7.80;;;7.40;99.90;;;;;;4148849;28;20057;-88
2022/12/23 09:53:18;;;;;;;24.88;9.30;;;7.50;99.90;;;;;;4201312;28;20067;-88
2022/12/23 09:55:22;;;;;;;24.00;8.27;;;7.70;99.90;;;;;;4180880;28;20079;-88
2022/12/23 09:57:23;;;;;;;27.35;8.75;;;7.90;99.90;;;;;;4199256;28;20417;-86
2022/12/23 09:59:36;;;;;;;23.48;8.88;;;8.20;99.90;;;;;;4198805;28;20051;-87
2022/12/23 10:01:48;;;;;;;25.77;9.45;;;8.40;99.90;;;;;;4198693;28;20048;-87
2022/12/23 10:04:01;;;;;;;22.48;9.07;;;8.40;99.90;;;;;;4181509;28;20128;-88
2022/12/23 10:06:25;;;;;;;26.08;9.10;;;8.40;99.90;;;;;;4180895;28;20083;-87
2022/12/23 10:08:43;;;;;;;23.08;9.07;;;8.40;99.90;;;;;;4184822;28;20045;-87
2022/12/23 10:10:59;;;;;;;23.25;8.73;;;8.50;99.90;;;;;;4203036;28;20043;-87
2022/12/23 10:13:03;;;;;;;25.67;9.50;;;8.70;99.90;;;;;;4217009;28;20044;-88
2022/12/23 10:15:17;;;;;;;23.95;9.50;;;9.40;99.90;;;;;;4214962;28;20044;-88
2022/12/23 10:17:40;;;;;;;19.90;8.02;;;8.90;99.90;;;;;;4194313;28;20048;-88
2022/12/23 10:19:46;;;;;;;22.52;8.68;;;9.00;99.90;;;;;;4197660;28;20044;-88
2022/12/23 10:21:51;;;;;;;19.25;7.95;;;8.90;99.90;;;;;;4214455;28;20046;-88
2022/12/23 10:23:54;;;;;;;20.20;8.48;;;8.90;99.90;;;;;;4214849;28;20431;-88
2022/12/23 10:25:54;;;;;;;16.67;8.85;;;8.70;99.90;;;;;;4214775;28;20138;-88
2022/12/23 10:27:55;;;;;;;20.15;7.78;;;8.60;99.90;;;;;;4213635;28;20471;-88
2022/12/23 10:30:21;;;;;;;23.25;8.43;;;8.60;99.90;;;;;;4214716;28;20059;-88
2022/12/23 10:32:55;;;;;;;21.00;7.95;;;8.50;99.90;;;;;;4211341;28;20044;-88
2022/12/23 10:35:36;;;;;;;25.65;8.15;;;8.50;99.90;;;;;;4181810;28;20050;-88
2022/12/23 10:37:59;;;;;;;21.92;8.75;;;8.40;99.90;;;;;;4214653;28;20074;-88
2022/12/23 10:40:08;;;;;;;24.13;8.73;;;8.30;99.90;;;;;;4214089;28;20040;-88
2022/12/23 10:42:25;;;;;;;21.38;8.40;;;8.30;99.90;;;;;;4196720;28;20044;-88
2022/12/23 10:44:52;;;;;;;25.95;9.15;;;8.20;99.90;;;;;;4213353;28;20063;-87
2022/12/23 10:47:14;;;;;;;18.20;7.70;;;8.20;99.90;;;;;;4214505;28;20077;-87
2022/12/23 10:49:47;;;;;;;21.70;8.18;;;8.10;99.90;;;;;;4212990;28;20055;-86
2022/12/23 10:51:54;;;;;;;23.15;7.80;;;8.10;99.90;;;;;;4204524;28;20052;-87
2022/12/23 10:54:00;;;;;;;17.00;7.93;;;8.00;99.90;;;;;;4213126;28;20156;-87
2022/12/23 10:56:03;;;;;;;19.73;8.55;;;7.90;99.90;;;;;;4205242;28;20044;-87
2022/12/23 10:58:17;;;;;;;18.38;7.80;;;7.90;99.90;;;;;;4196435;28;20087;-87
2022/12/23 11:00:21;;;;;;;20.83;6.40;;;7.90;99.90;;;;;;4195901;28;20118;-86
2022/12/23 11:02:33;;;;;;;17.98;6.78;;;7.80;99.90;;;;;;4215124;28;20048;-87
2022/12/23 11:04:36;;;;;;;27.25;9.65;;;7.80;99.90;;;;;;4215608;28;20065;-86
2022/12/23 11:06:42;;;;;;;24.13;7.90;;;7.80;99.90;;;;;;4183802;28;20049;-86
2022/12/23 11:08:44;;;;;;;23.75;8.38;;;7.70;99.90;;;;;;4198539;28;20061;-85
2022/12/23 11:10:45;;;;;;;23.67;8.48;;;7.80;99.90;;;;;;4197017;28;20080;-87
2022/12/23 11:12:52;;;;;;;25.85;8.85;;;7.80;99.90;;;;;;4198534;28;20049;-87
2022/12/23 11:14:55;;;;;;;24.05;8.18;;;7.80;99.90;;;;;;4198439;28;20425;-87
2022/12/23 11:16:56;;;;;;;25.95;8.88;;;7.80;99.90;;;;;;4198713;28;20059;-87